createdAt,value
2022-12-08T00:01:32.820Z,100699.41
2022-12-08T00:04:02.171Z,100697.38
2022-12-08T00:06:49.985Z,100700.00
2022-12-08T00:09:22.605Z,100703.47
2022-12-08T00:11:52.414Z,100702.88
2022-12-08T00:14:23.196Z,100698.63
2022-12-08T00:16:50.871Z,100704.56
2022-12-08T00:19:18.636Z,100712.41
2022-12-08T00:21:46.472Z,100710.03
2022-12-08T00:24:14.121Z,100707.34
2022-12-08T00:26:41.693Z,100696.16
2022-12-08T00:29:14.475Z,100701.53
2022-12-08T00:31:45.033Z,100700.88
2022-12-08T00:34:14.249Z,100709.31
2022-12-08T00:36:42.957Z,100700.44
2022-12-08T00:39:13.020Z,100704.22
2022-12-08T00:41:59.921Z,100706.88
2022-12-08T00:44:27.761Z,100700.66
2022-12-08T00:46:56.080Z,100705.41
2022-12-08T00:49:23.956Z,100708.75
2022-12-08T00:51:51.656Z,100709.03
2022-12-08T00:54:19.744Z,100700.22
2022-12-08T00:56:47.239Z,100713.38
2022-12-08T00:59:15.216Z,100713.03
2022-12-08T01:01:45.606Z,100702.03
2022-12-08T01:04:16.186Z,100712.41
2022-12-08T01:06:44.448Z,100712.41
2022-12-08T01:09:13.499Z,100712.09
2022-12-08T01:11:41.496Z,100709.06
2022-12-08T01:14:09.229Z,100692.22
2022-12-08T01:16:37.195Z,100706.97
2022-12-08T01:19:04.706Z,100699.50
2022-12-08T01:21:32.736Z,100697.38
2022-12-08T01:24:01.052Z,100696.44
2022-12-08T01:26:28.534Z,100702.13
2022-12-08T01:28:56.328Z,100689.53
2022-12-08T01:31:24.596Z,100704.13
2022-12-08T01:33:52.183Z,100712.63
2022-12-08T01:36:24.345Z,100708.63
2022-12-08T01:38:52.905Z,100708.63
2022-12-08T01:41:23.168Z,100710.16
2022-12-08T01:43:56.305Z,100709.81
2022-12-08T01:46:24.820Z,100716.78
2022-12-08T01:48:57.284Z,100707.75
2022-12-08T01:51:25.913Z,100704.28
2022-12-08T01:53:53.918Z,100695.47
2022-12-08T01:56:29.223Z,100685.66
2022-12-08T01:58:57.335Z,100684.16
2022-12-08T02:01:24.929Z,100684.91
2022-12-08T02:03:59.839Z,100683.31
2022-12-08T02:06:33.780Z,100682.19
2022-12-08T02:09:03.335Z,100685.38
2022-12-08T02:11:30.901Z,100689.41
2022-12-08T02:14:00.932Z,100676.28
2022-12-08T02:16:56.456Z,100673.22
2022-12-08T02:19:32.948Z,100678.13
2022-12-08T02:22:20.294Z,100672.31
2022-12-08T02:25:09.887Z,100670.56
2022-12-08T02:28:13.579Z,100665.66
2022-12-08T02:31:09.431Z,100657.47
2022-12-08T02:33:52.252Z,100668.00
2022-12-08T02:36:32.021Z,100660.72
2022-12-08T02:39:08.944Z,100660.53
2022-12-08T02:41:51.928Z,100668.91
2022-12-08T02:44:41.673Z,100662.94
2022-12-08T02:47:14.232Z,100659.84
2022-12-08T02:49:42.241Z,100651.94
2022-12-08T02:52:12.719Z,100654.72
2022-12-08T02:54:43.552Z,100651.69
2022-12-08T02:57:23.127Z,100638.28
2022-12-08T03:00:07.027Z,100640.31
2022-12-08T03:03:06.904Z,100631.53
2022-12-08T03:06:02.232Z,100633.78
2022-12-08T03:08:51.197Z,100633.97
2022-12-08T03:11:38.294Z,100641.19
2022-12-08T03:14:08.887Z,100635.94
2022-12-08T03:16:40.348Z,100634.03
2022-12-08T03:19:19.935Z,100635.31
2022-12-08T03:21:53.652Z,100637.91
2022-12-08T03:24:23.309Z,100638.72
2022-12-08T03:27:03.984Z,100641.25
2022-12-08T03:29:32.751Z,100642.16
2022-12-08T03:32:09.128Z,100636.63
2022-12-08T03:34:40.236Z,100636.97
2022-12-08T03:37:07.921Z,100637.78
2022-12-08T03:39:36.776Z,100630.81
2022-12-08T03:42:04.585Z,100640.56
2022-12-08T03:44:32.076Z,100630.03
2022-12-08T03:46:59.533Z,100632.59
2022-12-08T03:49:27.416Z,100635.81
2022-12-08T03:51:54.916Z,100628.78
2022-12-08T03:54:22.477Z,100627.19
2022-12-08T03:56:50.295Z,100620.72
2022-12-08T03:59:17.892Z,100619.69
2022-12-08T04:01:45.568Z,100613.41
2022-12-08T04:04:13.312Z,100614.50
2022-12-08T04:06:40.939Z,100614.91
2022-12-08T04:09:08.440Z,100623.75
2022-12-08T04:11:41.152Z,100619.09
2022-12-08T04:14:08.864Z,100616.94
2022-12-08T04:16:36.758Z,100626.16
2022-12-08T04:19:04.283Z,100628.22
2022-12-08T04:21:31.813Z,100623.31
2022-12-08T04:24:01.421Z,100611.66
2022-12-08T04:26:29.416Z,100602.50
2022-12-08T04:28:57.123Z,100603.88
2022-12-08T04:31:24.928Z,100604.31
2022-12-08T04:33:52.483Z,100600.84
2022-12-08T04:36:20.056Z,100598.69
2022-12-08T04:38:47.813Z,100597.91
2022-12-08T04:41:15.348Z,100599.50
2022-12-08T04:43:44.423Z,100595.72
2022-12-08T04:46:12.298Z,100602.59
2022-12-08T04:48:40.683Z,100601.53
2022-12-08T04:51:17.848Z,100605.94
2022-12-08T04:53:47.088Z,100606.09
2022-12-08T04:56:19.159Z,100610.81
2022-12-08T04:58:47.365Z,100615.09
2022-12-08T05:01:15.068Z,100616.00
2022-12-08T05:03:42.625Z,100609.81
2022-12-08T05:06:13.418Z,100600.00
2022-12-08T05:08:42.084Z,100599.63
2022-12-08T05:11:12.073Z,100602.97
2022-12-08T05:13:39.977Z,100596.09
2022-12-08T05:16:10.390Z,100600.63
2022-12-08T05:18:39.548Z,100600.53
2022-12-08T05:21:07.811Z,100608.66
2022-12-08T05:23:35.687Z,100593.66
2022-12-08T05:26:03.610Z,100595.28
2022-12-08T05:28:46.860Z,100596.75
2022-12-08T05:31:16.334Z,100599.47
2022-12-08T05:33:44.928Z,100607.25
2022-12-08T05:36:14.899Z,100610.50
2022-12-08T05:38:43.898Z,100618.53
2022-12-08T05:41:16.522Z,100606.75
2022-12-08T05:43:44.650Z,100596.87
2022-12-08T05:46:12.713Z,100601.12
2022-12-08T05:48:41.028Z,100600.31
2022-12-08T05:51:18.011Z,100596.63
2022-12-08T05:53:46.675Z,100597.25
2022-12-08T05:56:14.879Z,100591.16
2022-12-08T05:58:42.832Z,100596.87
2022-12-08T06:01:30.508Z,100606.31
2022-12-08T06:04:00.492Z,100600.84
2022-12-08T06:06:29.514Z,100596.63
2022-12-08T06:08:57.281Z,100592.06
2022-12-08T06:11:27.988Z,100585.38
2022-12-08T06:13:57.057Z,100592.00
2022-12-08T06:16:26.958Z,100587.88
2022-12-08T06:18:55.231Z,100587.66
2022-12-08T06:21:22.814Z,100581.59
2022-12-08T06:23:52.610Z,100581.69
2022-12-08T06:26:21.335Z,100581.78
2022-12-08T06:28:49.495Z,100587.91
2022-12-08T06:31:22.935Z,100603.06
2022-12-08T06:33:51.333Z,100604.22
2022-12-08T06:36:21.290Z,100607.56
2022-12-08T06:38:48.945Z,100600.19
2022-12-08T06:41:17.513Z,100596.44
2022-12-08T06:43:46.013Z,100604.03
2022-12-08T06:46:16.319Z,100609.22
2022-12-08T06:48:44.662Z,100606.47
2022-12-08T06:51:15.866Z,100603.47
2022-12-08T06:53:44.893Z,100612.84
2022-12-08T06:56:16.885Z,100608.41
2022-12-08T06:58:50.590Z,100602.87
2022-12-08T07:01:21.977Z,100608.19
2022-12-08T07:03:50.000Z,100611.81
2022-12-08T07:06:21.667Z,100614.62
2022-12-08T07:08:49.689Z,100607.88
2022-12-08T07:11:21.551Z,100614.31
2022-12-08T07:13:50.573Z,100617.69
2022-12-08T07:16:18.226Z,100619.78
2022-12-08T07:18:45.715Z,100616.19
2022-12-08T07:21:17.141Z,100612.50
2022-12-08T07:23:54.310Z,100614.75
2022-12-08T07:26:25.363Z,100614.03
2022-12-08T07:28:52.834Z,100609.28
2022-12-08T07:31:22.997Z,100607.31
2022-12-08T07:33:51.599Z,100603.34
2022-12-08T07:36:19.323Z,100590.44
2022-12-08T07:38:47.285Z,100599.75
2022-12-08T07:41:17.300Z,100593.22
2022-12-08T07:43:45.306Z,100591.22
2022-12-08T07:46:14.306Z,100595.63
2022-12-08T07:48:42.732Z,100597.66
2022-12-08T07:51:13.720Z,100599.75
2022-12-08T07:53:45.304Z,100603.69
2022-12-08T07:56:15.388Z,100609.59
2022-12-08T07:58:42.924Z,100610.00
2022-12-08T08:01:26.344Z,100604.53
2022-12-08T08:03:56.363Z,100599.91
2022-12-08T08:06:24.433Z,100609.66
2022-12-08T08:08:51.912Z,100604.28
2022-12-08T08:11:21.562Z,100609.81
2022-12-08T08:13:52.738Z,100603.06
2022-12-08T08:16:21.232Z,100614.44
2022-12-08T08:18:51.040Z,100612.75
2022-12-08T08:24:07.788Z,100604.22
2022-12-08T08:26:37.357Z,100599.56
2022-12-08T08:29:05.296Z,100591.84
2022-12-08T08:31:33.191Z,100596.59
2022-12-08T08:34:05.036Z,100590.25
2022-12-08T08:36:33.136Z,100583.00
2022-12-08T08:39:00.648Z,100563.69
2022-12-08T08:41:28.852Z,100555.31
2022-12-08T08:43:56.697Z,100557.62
2022-12-08T08:46:24.292Z,100553.91
2022-12-08T08:48:51.764Z,100541.53
2022-12-08T08:51:19.481Z,100549.81
2022-12-08T08:53:46.961Z,100540.56
2022-12-08T08:56:19.308Z,100545.94
2022-12-08T08:58:49.599Z,100545.19
2022-12-08T09:01:19.918Z,100529.75
2022-12-08T09:03:48.776Z,100533.91
2022-12-08T09:06:17.072Z,100529.56
2022-12-08T09:08:45.568Z,100528.91
2022-12-08T09:11:13.581Z,100524.47
2022-12-08T09:13:42.577Z,100514.47
2022-12-08T09:16:11.838Z,100511.28
2022-12-08T09:18:39.646Z,100500.12
2022-12-08T09:21:15.020Z,100492.53
2022-12-08T09:23:44.078Z,100484.63
2022-12-08T09:26:11.972Z,100491.31
2022-12-08T09:28:39.329Z,100476.41
2022-12-08T09:31:07.345Z,100475.81
2022-12-08T09:33:34.860Z,100473.44
2022-12-08T09:36:04.221Z,100471.34
2022-12-08T09:38:32.448Z,100463.72
2022-12-08T09:41:03.133Z,100459.25
2022-12-08T09:43:42.716Z,100453.38
2022-12-08T09:46:13.664Z,100454.75
2022-12-08T09:48:51.879Z,100459.22
2022-12-08T09:51:19.831Z,100469.12
2022-12-08T09:53:52.192Z,100467.25
2022-12-08T09:56:27.083Z,100456.06
2022-12-08T09:59:05.816Z,100461.63
2022-12-08T10:01:41.826Z,100451.78
2022-12-08T10:04:35.065Z,100453.78
2022-12-08T10:07:24.032Z,100454.72
2022-12-08T10:10:40.414Z,100465.28
2022-12-08T10:13:26.569Z,100475.53
2022-12-08T10:16:21.992Z,100461.22
2022-12-08T10:19:10.237Z,100461.59
2022-12-08T10:21:39.906Z,100458.53
2022-12-08T10:24:37.499Z,100456.09
2022-12-08T10:27:10.600Z,100442.25
2022-12-08T10:29:40.069Z,100439.63
2022-12-08T10:32:22.876Z,100431.00
2022-12-08T10:35:02.270Z,100424.34
2022-12-08T10:37:30.065Z,100419.47
2022-12-08T10:40:11.802Z,100414.62
2022-12-08T10:42:59.967Z,100408.41
2022-12-08T10:45:38.488Z,100400.00
2022-12-08T10:48:15.995Z,100386.00
2022-12-08T10:50:50.480Z,100375.06
2022-12-08T10:53:25.228Z,100373.97
2022-12-08T10:56:05.153Z,100372.37
2022-12-08T10:58:42.886Z,100363.09
2022-12-08T11:01:19.819Z,100359.78
2022-12-08T11:04:05.295Z,100345.53
2022-12-08T11:06:36.161Z,100352.84
2022-12-08T11:09:23.887Z,100348.38
2022-12-08T11:11:56.953Z,100344.44
2022-12-08T11:14:30.726Z,100354.63
2022-12-08T11:17:13.588Z,100349.75
2022-12-08T11:19:44.424Z,100337.81
2022-12-08T11:22:22.131Z,100339.75
2022-12-08T11:25:03.567Z,100323.81
2022-12-08T11:27:33.723Z,100328.09
2022-12-08T11:30:04.092Z,100331.34
2022-12-08T11:32:34.748Z,100324.84
2022-12-08T11:35:06.463Z,100322.06
2022-12-08T11:37:40.244Z,100309.72
2022-12-08T11:56:03.825Z,100274.84
2022-12-08T11:58:41.207Z,100270.81
2022-12-08T12:01:39.405Z,100267.94
2022-12-08T12:04:18.980Z,100273.03
2022-12-08T12:07:08.413Z,100275.41
2022-12-08T12:09:42.100Z,100267.94
2022-12-08T12:12:28.990Z,100275.91
2022-12-08T12:15:28.376Z,100272.81
2022-12-08T12:18:16.314Z,100284.94
2022-12-08T12:20:59.160Z,100285.41
2022-12-08T12:23:47.985Z,100289.44
2022-12-08T12:26:23.560Z,100280.66
2022-12-08T12:28:56.974Z,100284.81
2022-12-08T12:31:50.992Z,100274.50
2022-12-08T12:34:25.501Z,100269.72
2022-12-08T12:37:10.279Z,100257.13
2022-12-08T12:39:53.439Z,100255.22
2022-12-08T12:42:41.628Z,100259.25
2022-12-08T12:45:18.158Z,100243.81
2022-12-08T12:47:56.383Z,100248.44
2022-12-08T12:50:33.258Z,100248.69
2022-12-08T12:53:09.136Z,100258.91
2022-12-08T12:55:45.993Z,100259.03
2022-12-08T12:58:27.933Z,100252.38
2022-12-08T13:01:10.656Z,100245.00
2022-12-08T13:03:45.790Z,100248.69
2022-12-08T13:06:15.540Z,100252.84
2022-12-08T13:08:52.023Z,100247.75
2022-12-08T13:11:19.695Z,100241.94
2022-12-08T13:14:05.781Z,100240.16
2022-12-08T13:16:37.739Z,100246.44
2022-12-08T13:19:13.999Z,100244.53
2022-12-08T13:21:42.427Z,100230.63
2022-12-08T13:24:10.138Z,100242.62
2022-12-08T13:26:45.674Z,100236.84
2022-12-08T13:29:15.423Z,100242.75
2022-12-08T13:31:51.081Z,100236.09
2022-12-08T13:34:48.636Z,100238.47
2022-12-08T13:37:26.891Z,100238.09
2022-12-08T13:40:10.570Z,100234.19
2022-12-08T13:42:47.147Z,100240.72
2022-12-08T13:45:48.765Z,100245.94
2022-12-08T13:49:13.616Z,100246.44
2022-12-08T13:57:28.745Z,100240.59
2022-12-08T14:00:01.743Z,100251.53
2022-12-08T14:02:47.699Z,100250.94
2022-12-08T14:05:20.373Z,100243.09
2022-12-08T14:07:54.313Z,100240.25
2022-12-08T14:10:28.429Z,100238.09
2022-12-08T14:13:00.671Z,100229.19
2022-12-08T14:15:34.026Z,100221.09
2022-12-08T14:18:04.717Z,100228.47
2022-12-08T14:20:51.860Z,100233.84
2022-12-08T14:23:21.880Z,100221.81
2022-12-08T14:25:50.288Z,100229.31
2022-12-08T14:28:18.472Z,100219.75
2022-12-08T14:30:48.722Z,100224.53
2022-12-08T14:33:17.478Z,100209.56
2022-12-08T14:35:52.139Z,100218.12
2022-12-08T14:38:21.620Z,100214.81
2022-12-08T14:41:06.964Z,100212.66
2022-12-08T14:43:35.076Z,100223.78
2022-12-08T14:46:06.381Z,100217.72
2022-12-08T14:48:33.948Z,100225.47
2022-12-08T14:51:18.933Z,100230.19
2022-12-08T14:53:54.659Z,100242.91
2022-12-08T14:56:26.852Z,100241.56
2022-12-08T14:59:09.369Z,100233.03
2022-12-08T15:01:37.554Z,100230.69
2022-12-08T15:04:14.700Z,100227.16
2022-12-08T15:07:00.805Z,100241.03
2022-12-08T15:09:41.012Z,100236.53
2022-12-08T15:12:14.849Z,100229.75
2022-12-08T15:14:55.939Z,100223.09
2022-12-08T15:18:06.021Z,100219.19
2022-12-08T15:20:44.211Z,100220.09
2022-12-08T15:23:26.577Z,100208.66
2022-12-08T15:25:54.981Z,100219.03
2022-12-08T15:28:30.099Z,100223.50
2022-12-08T15:30:58.712Z,100216.28
2022-12-08T15:33:27.800Z,100214.03
2022-12-08T15:35:55.305Z,100211.66
2022-12-08T15:38:31.407Z,100210.22
2022-12-08T15:40:59.122Z,100205.72
2022-12-08T15:43:27.487Z,100206.53
2022-12-08T15:45:59.603Z,100208.06
2022-12-08T15:48:29.884Z,100195.50
2022-12-08T15:50:57.705Z,100186.09
2022-12-08T15:53:25.728Z,100190.72
2022-12-08T15:56:25.657Z,100186.66
2022-12-08T15:58:57.841Z,100197.34
2022-12-08T16:01:26.688Z,100200.44
2022-12-08T16:09:43.716Z,100200.38
2022-12-08T16:13:26.885Z,100194.62
2022-12-08T16:15:51.256Z,100192.72
2022-12-08T16:18:26.012Z,100197.09
2022-12-08T16:21:22.743Z,100199.00
2022-12-08T16:23:44.199Z,100208.78
2022-12-08T16:26:24.389Z,100221.44
2022-12-08T16:29:05.308Z,100214.97
2022-12-08T16:31:33.436Z,100220.37
2022-12-08T16:34:01.073Z,100222.12
2022-12-08T16:36:28.498Z,100227.25
2022-12-08T16:38:56.418Z,100221.19
2022-12-08T16:41:43.375Z,100223.31
2022-12-08T16:44:11.188Z,100217.38
2022-12-08T16:46:39.219Z,100222.75
2022-12-08T16:49:09.176Z,100225.22
2022-12-08T16:51:36.929Z,100223.66
2022-12-08T16:54:04.832Z,100225.75
2022-12-08T16:56:33.648Z,100226.22
2022-12-08T16:59:02.386Z,100225.72
2022-12-08T17:01:31.493Z,100231.56
2022-12-08T17:04:30.905Z,100227.44
2022-12-08T17:06:47.361Z,100223.59
2022-12-08T17:09:14.821Z,100215.03
2022-12-08T17:11:43.549Z,100225.28
2022-12-08T17:14:12.667Z,100226.25
2022-12-08T17:16:40.340Z,100228.59
2022-12-08T17:19:08.401Z,100217.31
2022-12-08T17:21:36.365Z,100218.38
2022-12-08T17:24:04.616Z,100222.44
2022-12-08T17:26:32.256Z,100221.25
2022-12-08T17:29:02.577Z,100221.78
2022-12-08T17:31:32.360Z,100204.03
2022-12-08T17:34:05.809Z,100211.13
2022-12-08T17:36:33.464Z,100206.97
2022-12-08T17:39:01.693Z,100213.78
2022-12-08T17:41:29.966Z,100210.28
2022-12-08T17:43:57.484Z,100196.50
2022-12-08T17:46:25.617Z,100200.66
2022-12-08T17:48:53.428Z,100201.25
2022-12-08T17:51:21.108Z,100208.03
2022-12-08T17:53:48.939Z,100218.38
2022-12-08T17:56:20.993Z,100220.13
2022-12-08T17:58:54.293Z,100227.97
2022-12-08T18:01:23.696Z,100231.62
2022-12-08T18:03:51.947Z,100229.12
2022-12-08T18:06:20.082Z,100226.41
2022-12-08T18:08:48.010Z,100220.81
2022-12-08T18:11:18.887Z,100217.44
2022-12-08T18:13:48.923Z,100223.81
2022-12-08T18:16:19.420Z,100221.13
2022-12-08T18:18:47.688Z,100220.37
2022-12-08T18:21:22.818Z,100224.94
2022-12-08T18:23:51.735Z,100230.19
2022-12-08T18:26:20.529Z,100219.50
2022-12-08T18:28:48.493Z,100213.87
2022-12-08T18:31:20.060Z,100211.44
2022-12-08T18:33:49.343Z,100217.28
2022-12-08T18:36:23.019Z,100215.16
2022-12-08T18:38:51.557Z,100220.37
2022-12-08T18:41:24.513Z,100216.81
2022-12-08T18:43:53.448Z,100209.94
2022-12-08T18:46:21.825Z,100207.53
2022-12-08T18:48:50.632Z,100204.72
2022-12-08T18:51:21.316Z,100213.16
2022-12-08T18:53:50.899Z,100220.63
2022-12-08T18:56:27.182Z,100218.62
2022-12-08T18:59:02.824Z,100217.69
2022-12-08T19:01:33.127Z,100212.56
2022-12-08T19:04:27.225Z,100212.47
2022-12-08T19:06:52.452Z,100217.69
2022-12-08T19:09:20.812Z,100223.84
2022-12-08T19:11:48.455Z,100224.69
2022-12-08T19:14:16.129Z,100223.00
2022-12-08T19:16:44.019Z,100211.72
2022-12-08T19:19:12.149Z,100216.16
2022-12-08T19:21:45.960Z,100223.84
2022-12-08T19:24:14.506Z,100227.28
2022-12-08T19:26:42.610Z,100218.19
2022-12-08T19:29:10.667Z,100220.94
2022-12-08T19:31:39.692Z,100229.28
2022-12-08T19:34:09.290Z,100237.81
2022-12-08T19:36:42.335Z,100238.66
2022-12-08T19:39:35.177Z,100229.50
2022-12-08T19:42:37.800Z,100240.56
2022-12-08T19:45:12.203Z,100247.22
2022-12-08T19:47:40.503Z,100241.88
2022-12-08T19:50:29.800Z,100234.16
2022-12-08T19:52:58.070Z,100232.84
2022-12-08T19:55:26.743Z,100231.31
2022-12-08T19:57:56.659Z,100234.78
2022-12-08T20:00:24.342Z,100226.84
2022-12-08T20:02:52.434Z,100238.66
2022-12-08T20:05:20.204Z,100225.75
2022-12-08T20:07:48.105Z,100221.72
2022-12-08T20:10:21.941Z,100221.09
2022-12-08T20:12:49.736Z,100222.44
2022-12-08T20:15:17.693Z,100217.09
2022-12-08T20:17:45.465Z,100226.38
2022-12-08T20:20:14.141Z,100241.22
2022-12-08T20:22:42.944Z,100228.25
2022-12-08T20:25:13.087Z,100235.47
2022-12-08T20:27:41.383Z,100246.75
2022-12-08T20:30:16.446Z,100246.31
2022-12-08T20:32:45.589Z,100251.53
2022-12-08T20:35:14.980Z,100251.44
2022-12-08T20:37:42.900Z,100261.75
2022-12-08T20:40:10.712Z,100264.13
2022-12-08T20:42:38.723Z,100271.03
2022-12-08T20:45:09.141Z,100265.06
2022-12-08T20:47:37.751Z,100268.41
2022-12-08T20:50:07.112Z,100265.53
2022-12-08T20:52:35.117Z,100261.75
2022-12-08T20:55:02.780Z,100264.03
2022-12-08T20:57:30.902Z,100257.97
2022-12-08T20:59:58.447Z,100259.66
2022-12-08T21:02:27.133Z,100256.09
2022-12-08T21:04:55.327Z,100241.28
2022-12-08T21:07:23.010Z,100242.09
2022-12-08T21:09:50.600Z,100245.44
2022-12-08T21:12:18.801Z,100250.03
2022-12-08T21:14:46.391Z,100248.13
2022-12-08T21:17:14.100Z,100255.16
2022-12-08T21:19:42.192Z,100255.25
2022-12-08T21:22:09.838Z,100263.41
2022-12-08T21:24:37.888Z,100265.59
2022-12-08T21:27:05.892Z,100264.88
2022-12-08T21:29:33.656Z,100263.94
2022-12-08T21:32:01.359Z,100277.91
2022-12-08T21:34:31.774Z,100280.53
2022-12-08T21:37:00.344Z,100289.28
2022-12-08T21:39:27.896Z,100286.06
2022-12-08T21:42:14.121Z,100279.53
2022-12-08T21:44:41.517Z,100279.31
2022-12-08T21:47:09.507Z,100277.53
2022-12-08T21:49:37.369Z,100280.59
2022-12-08T21:52:05.259Z,100283.81
2022-12-08T21:54:33.094Z,100284.75
2022-12-08T21:57:00.703Z,100290.91
2022-12-08T21:59:28.251Z,100291.66
2022-12-08T22:01:56.398Z,100285.81
2022-12-08T22:04:25.306Z,100292.91
2022-12-08T22:06:52.993Z,100284.03
2022-12-08T22:09:20.552Z,100293.97
2022-12-08T22:11:48.582Z,100297.53
2022-12-08T22:14:16.167Z,100277.37
2022-12-08T22:16:44.366Z,100276.44
2022-12-08T22:19:12.664Z,100288.03
2022-12-08T22:21:43.219Z,100296.09
2022-12-08T22:24:10.700Z,100291.94
2022-12-08T22:26:38.545Z,100288.25
2022-12-08T22:29:06.361Z,100292.16
2022-12-08T22:31:34.087Z,100293.81
2022-12-08T22:34:01.811Z,100309.25
2022-12-08T22:36:29.838Z,100310.81
2022-12-08T22:38:57.225Z,100302.28
2022-12-08T22:41:24.947Z,100293.69
2022-12-08T22:43:52.458Z,100299.88
2022-12-08T22:46:21.524Z,100295.38
2022-12-08T22:48:50.102Z,100295.16
2022-12-08T22:51:18.245Z,100286.34
2022-12-08T22:53:46.679Z,100288.16
2022-12-08T22:56:16.006Z,100294.78
2022-12-08T22:58:46.971Z,100304.19
2022-12-08T23:01:30.017Z,100319.00
2022-12-08T23:03:58.786Z,100302.75
2022-12-08T23:06:28.676Z,100297.50
2022-12-08T23:08:56.764Z,100307.12
2022-12-08T23:11:27.868Z,100306.44
2022-12-08T23:13:59.920Z,100301.00
2022-12-08T23:16:28.101Z,100298.69
2022-12-08T23:18:56.096Z,100290.75
2022-12-08T23:21:23.571Z,100300.47
2022-12-08T23:23:51.120Z,100300.59
2022-12-08T23:26:24.963Z,100294.87
2022-12-08T23:28:52.800Z,100296.00
2022-12-08T23:31:20.946Z,100292.53
2022-12-08T23:33:48.769Z,100296.09
2022-12-08T23:36:17.844Z,100306.44
2022-12-08T23:38:46.182Z,100293.59
2022-12-08T23:41:15.691Z,100295.16
2022-12-08T23:43:51.311Z,100295.25
2022-12-08T23:46:21.295Z,100298.06
2022-12-08T23:48:50.156Z,100290.47
2022-12-08T23:51:18.430Z,100287.75
2022-12-08T23:53:46.410Z,100275.88
2022-12-08T23:56:16.341Z,100256.81
2022-12-08T23:58:44.328Z,100255.84
